Time;durP1;ratioP1;P1;durP2;ratioP2;P2;SDS_P1;SDS_P2;PMS_P1;PMS_P2;Temp;Humidity;BMP_temperature;BMP_pressure;BME280_temperature;BME280_humidity;BME280_pressure;Samples;Min_cycle;Max_cycle;Signal;HPM_P1;HPM_P2
2022/11/29 00:00:31;;;;;;;64.70;15.20;;;;;;;;;;5029420;28;20047;-64
2022/11/29 00:02:57;;;;;;;99.82;15.85;;;;;;;;;;5031329;28;20195;-66
2022/11/29 00:05:23;;;;;;;115.40;18.42;;;;;;;;;;5031693;28;20136;-64
2022/11/29 00:07:49;;;;;;;135.93;19.35;;;;;;;;;;5030438;28;20084;-65
2022/11/29 00:10:15;;;;;;;183.20;20.85;;;;;;;;;;5031903;28;20052;-65
2022/11/29 00:12:41;;;;;;;174.07;20.42;;;;;;;;;;5030220;28;20045;-65
2022/11/29 00:15:07;;;;;;;100.13;17.15;;;;;;;;;;5031040;28;20056;-64
2022/11/29 00:17:33;;;;;;;112.80;16.67;;;;;;;;;;5024299;28;20514;-64
2022/11/29 00:19:59;;;;;;;175.38;20.95;;;;;;;;;;5029900;28;20050;-64
2022/11/29 00:22:25;;;;;;;217.73;23.05;;;;;;;;;;5031436;28;20489;-65
2022/11/29 00:24:51;;;;;;;49.55;14.27;;;;;;;;;;5030248;28;20172;-64
2022/11/29 00:27:17;;;;;;;84.10;17.77;;;;;;;;;;5031640;28;20045;-64
2022/11/29 00:29:43;;;;;;;152.32;20.17;;;;;;;;;;5030407;28;20054;-65
2022/11/29 00:32:09;;;;;;;115.80;18.45;;;;;;;;;;5031280;28;20120;-64
2022/11/29 00:34:36;;;;;;;143.30;19.30;;;;;;;;;;5002197;28;20459;-64
2022/11/29 00:37:02;;;;;;;48.55;15.45;;;;;;;;;;5031042;28;20037;-64
2022/11/29 00:39:28;;;;;;;96.38;19.33;;;;;;;;;;5014330;28;20429;-65
2022/11/29 00:41:54;;;;;;;151.38;24.20;;;;;;;;;;5030233;28;20524;-65
2022/11/29 00:44:21;;;;;;;132.88;23.77;;;;;;;;;;5030103;28;20088;-65
2022/11/29 00:46:47;;;;;;;204.05;32.78;;;;;;;;;;5031155;28;20056;-64
2022/11/29 00:49:13;;;;;;;196.25;34.80;;;;;;;;;;5030297;28;20107;-65
2022/11/29 00:51:39;;;;;;;294.67;41.53;;;;;;;;;;5029056;28;21642;-66
2022/11/29 00:54:05;;;;;;;169.70;33.75;;;;;;;;;;5029966;28;20096;-65
2022/11/29 00:56:31;;;;;;;182.05;31.13;;;;;;;;;;5029779;28;20140;-65
2022/11/29 00:58:57;;;;;;;216.25;28.70;;;;;;;;;;5030104;28;20052;-64
2022/11/29 01:01:23;;;;;;;216.05;27.95;;;;;;;;;;5031070;28;20402;-64
2022/11/29 01:03:49;;;;;;;119.50;19.58;;;;;;;;;;5030953;28;20053;-64
2022/11/29 01:06:16;;;;;;;226.50;24.90;;;;;;;;;;5013661;28;20048;-65
2022/11/29 01:08:44;;;;;;;173.52;19.65;;;;;;;;;;4996471;28;20049;-64
2022/11/29 01:11:17;;;;;;;187.68;19.35;;;;;;;;;;5010755;28;20046;-64
2022/11/29 01:13:43;;;;;;;299.67;26.08;;;;;;;;;;5024184;28;20053;-64
2022/11/29 01:16:09;;;;;;;251.75;23.50;;;;;;;;;;5032550;28;20120;-64
2022/11/29 01:18:36;;;;;;;158.15;19.67;;;;;;;;;;5034271;28;20489;-64
2022/11/29 01:21:04;;;;;;;141.25;18.92;;;;;;;;;;5034613;28;20054;-64
2022/11/29 01:23:30;;;;;;;399.02;30.75;;;;;;;;;;5016954;28;20132;-64
2022/11/29 01:26:01;;;;;;;255.50;24.48;;;;;;;;;;5032212;28;20129;-64
2022/11/29 01:28:27;;;;;;;;;;;;;;;;;;5033616;28;20079;-64
2022/11/29 01:30:53;;;;;;;136.02;18.42;;;;;;;;;;5034185;28;19968;-64
2022/11/29 01:33:19;;;;;;;167.73;19.27;;;;;;;;;;5034320;28;20049;-64
2022/11/29 01:35:52;;;;;;;159.43;19.25;;;;;;;;;;5033104;28;20045;-64
2022/11/29 01:38:18;;;;;;;142.77;18.00;;;;;;;;;;5032869;28;20072;-65
2022/11/29 01:40:45;;;;;;;137.10;17.73;;;;;;;;;;5034246;28;20099;-64
2022/11/29 01:43:15;;;;;;;148.88;18.48;;;;;;;;;;5032548;28;20079;-64
2022/11/29 01:45:42;;;;;;;138.77;18.35;;;;;;;;;;5012658;28;20148;-65
2022/11/29 01:48:09;;;;;;;356.40;31.00;;;;;;;;;;5029951;28;20126;-65
2022/11/29 01:50:36;;;;;;;160.00;20.85;;;;;;;;;;5016563;28;20052;-65
2022/11/29 01:53:02;;;;;;;144.77;20.35;;;;;;;;;;5032229;28;20053;-64
2022/11/29 01:55:28;;;;;;;235.32;24.95;;;;;;;;;;5021866;28;20092;-64
2022/11/29 01:57:54;;;;;;;254.15;24.15;;;;;;;;;;5024123;28;20391;-66
2022/11/29 02:00:20;;;;;;;179.80;21.83;;;;;;;;;;5032437;28;20128;-66
2022/11/29 02:02:49;;;;;;;179.77;20.80;;;;;;;;;;5031110;28;20409;-66
2022/11/29 02:05:16;;;;;;;162.48;20.52;;;;;;;;;;5033423;28;20487;-68
2022/11/29 02:07:44;;;;;;;202.50;22.83;;;;;;;;;;5031166;28;20049;-65
2022/11/29 02:10:10;;;;;;;153.00;19.17;;;;;;;;;;5032748;28;20049;-65
2022/11/29 02:13:00;;;;;;;171.75;19.60;;;7.80;99.90;;;;;;5005846;28;20068;-66
2022/11/29 02:15:45;;;;;;;212.05;19.83;;;;;;;;;;5046885;28;20049;-66
2022/11/29 02:18:13;;;;;;;120.78;16.30;;;;;;;;;;5015457;28;20456;-67
2022/11/29 02:20:39;;;;;;;243.80;23.08;;;;;;;;;;5011786;28;20050;-67
2022/11/29 02:23:05;;;;;;;327.35;28.30;;;;;;;;;;5032087;28;20103;-65
2022/11/29 02:25:48;;;;;;;97.78;17.55;;;;;;;;;;5032537;28;20081;-65
2022/11/29 02:28:20;;;;;;;168.95;23.15;;;;;;;;;;5032053;28;20132;-64
2022/11/29 02:31:08;;;;;;;217.85;26.80;;;;;;;;;;5031750;28;20104;-65
2022/11/29 02:33:44;;;;;;;149.00;24.80;;;;;;;;;;5018540;28;20041;-64
2022/11/29 02:36:10;;;;;;;119.35;21.65;;;;;;;;;;5036965;28;20385;-64
2022/11/29 02:38:42;;;;;;;74.05;21.20;;;;;;;;;;5032732;28;20124;-64
2022/11/29 02:41:27;;;;;;;188.35;29.10;;;;;;;;;;5015271;28;20076;-65
2022/11/29 02:43:59;;;;;;;194.90;31.90;;;;;;;;;;5032216;28;20429;-64
2022/11/29 02:46:28;;;;;;;175.73;31.85;;;;;;;;;;5021764;28;20042;-64
2022/11/29 02:49:00;;;;;;;271.67;36.72;;;;;;;;;;5032433;28;20052;-65
2022/11/29 02:51:39;;;;;;;220.15;31.92;;;;;;;;;;5031268;28;20042;-64
2022/11/29 02:54:11;;;;;;;188.63;28.50;;;;;;;;;;5031026;28;20049;-64
2022/11/29 02:56:42;;;;;;;192.25;31.70;;;;;;;;;;5032198;28;20046;-64
2022/11/29 02:59:47;;;;;;;210.68;30.52;;;;;;;;;;5032126;28;20041;-64
2022/11/29 03:02:16;;;;;;;208.93;30.75;;;;;;;;;;4989999;28;20561;-65
2022/11/29 03:04:49;;;;;;;259.73;31.02;;;;;;;;;;4973095;28;20192;-65
2022/11/29 03:07:23;;;;;;;144.65;23.00;;;;;;;;;;4980580;28;20177;-65
2022/11/29 03:09:58;;;;;;;194.60;23.65;;;;;;;;;;5002632;22;20080;-65
2022/11/29 03:12:43;;;;;;;110.05;20.70;;;;;;;;;;5057230;23;20053;-64
2022/11/29 03:15:18;;;;;;;157.40;22.80;;;;;;;;;;4970903;28;20510;-64
2022/11/29 03:17:44;;;;;;;91.93;17.90;;;;;;;;;;4938925;28;20479;-64
2022/11/29 03:20:10;;;;;;;99.85;18.83;;;;;;;;;;4956901;28;20104;-65
2022/11/29 03:23:03;;;;;;;247.18;25.38;;;;;;;;;;4955885;28;20042;-64
2022/11/29 03:25:33;;;;;;;114.65;21.50;;;;;;;;;;5001913;23;20502;-66
2022/11/29 03:28:05;;;;;;;115.85;19.77;;;;;;;;;;5056378;22;20489;-65
2022/11/29 03:30:41;;;;;;;252.82;27.65;;;;;;;;;;5069694;22;20064;-64
2022/11/29 03:33:08;;;;;;;172.93;24.20;;;;;;;;;;5010282;28;20045;-64
2022/11/29 03:35:46;;;;;;;226.45;25.85;;;;;;;;;;4993678;28;20076;-65
2022/11/29 03:38:24;;;;;;;234.18;23.92;;;;;;;;;;4994504;28;20042;-64
2022/11/29 03:41:12;;;;;;;126.70;20.42;;;7.60;99.90;;;;;;5011761;28;20054;-64
2022/11/29 03:43:44;;;;;;;231.55;25.88;;;;;;;;;;4994064;28;20442;-64
2022/11/29 03:46:40;;;;;;;217.77;20.40;;;7.90;99.90;;;;;;5010243;28;20038;-63
2022/11/29 03:49:20;;;;;;;168.38;20.02;;;;;;;;;;4995190;28;20048;-63
2022/11/29 03:52:05;;;;;;;299.65;27.75;;;;;;;;;;4994003;28;20116;-64
2022/11/29 03:54:42;;;;;;;222.25;20.60;;;;;;;;;;4994785;28;20065;-64
2022/11/29 03:57:08;;;;;;;283.95;25.20;;;;;;;;;;4994019;28;20045;-64
2022/11/29 03:59:43;;;;;;;187.73;18.42;;;;;;;;;;4989915;28;20398;-64
2022/11/29 04:02:46;;;;;;;196.55;20.98;;;7.30;99.90;;;;;;5010579;28;20077;-63
2022/11/29 04:05:53;;;;;;;153.48;19.77;;;7.60;99.90;;;;;;5011571;28;20049;-63
2022/11/29 04:08:34;;;;;;;164.98;19.42;;;;;;;;;;4994086;28;20082;-64
2022/11/29 04:11:22;;;;;;;76.10;17.08;;;;;;;;;;5010464;28;20068;-64
2022/11/29 04:13:58;;;;;;;153.18;19.02;;;;;;;;;;4982874;28;20179;-64
2022/11/29 04:16:32;;;;;;;224.07;22.52;;;;;;;;;;4992466;28;20038;-64
2022/11/29 04:19:15;;;;;;;209.20;19.23;;;;;;;;;;4992793;28;20053;-64
2022/11/29 04:21:44;;;;;;;228.15;20.02;;;;;;;;;;4994004;28;20042;-63
2022/11/29 04:24:53;;;;;;;196.85;19.38;;;7.70;99.90;;;;;;5011936;28;20101;-63
2022/11/29 04:27:48;;;;;;;279.17;22.35;;;7.40;99.90;;;;;;5011079;28;20042;-63
2022/11/29 04:30:24;;;;;;;163.43;17.02;;;;;;;;;;4994027;28;20498;-63
2022/11/29 04:33:02;;;;;;;260.08;22.80;;;;;;;;;;4985533;28;20105;-63
2022/11/29 04:35:38;;;;;;;212.60;20.17;;;;;;;;;;4971307;28;20055;-64
2022/11/29 04:38:04;;;;;;;212.77;19.92;;;;;;;;;;4970676;28;20503;-63
2022/11/29 04:40:49;;;;;;;149.43;17.10;;;;;;;;;;4972186;28;20133;-63
2022/11/29 04:43:34;;;;;;;136.27;18.17;;;;;;;;;;4972603;28;20057;-64
2022/11/29 04:46:19;;;;;;;246.55;21.77;;;;;;;;;;4972842;28;20059;-64
2022/11/29 04:48:51;;;;;;;204.70;19.27;;;;;;;;;;4973682;28;20578;-64
2022/11/29 04:51:24;;;;;;;305.50;25.15;;;;;;;;;;4991041;28;20050;-63
2022/11/29 04:53:54;;;;;;;161.32;18.38;;;;;;;;;;4990887;28;20046;-64
2022/11/29 04:56:27;;;;;;;168.27;18.83;;;;;;;;;;4999704;28;20054;-64
2022/11/29 04:58:59;;;;;;;134.00;17.13;;;;;;;;;;4997204;28;20081;-63
2022/11/29 05:01:36;;;;;;;163.27;17.20;;;;;;;;;;4974635;28;20109;-64
2022/11/29 05:04:05;;;;;;;120.82;15.73;;;;;;;;;;4990540;28;20054;-63
2022/11/29 05:06:39;;;;;;;196.75;17.63;;;;;;;;;;4974789;28;20055;-63
2022/11/29 05:09:23;;;;;;;180.85;18.83;;;;;;;;;;4974783;28;20054;-64
2022/11/29 05:11:55;;;;;;;251.50;20.65;;;;;;;;;;4975897;28;20114;-64
2022/11/29 05:14:35;;;;;;;206.90;18.88;;;;;;;;;;4974988;28;20054;-64
2022/11/29 05:17:07;;;;;;;182.73;21.17;;;;;;;;;;4957683;28;20407;-64
2022/11/29 05:19:36;;;;;;;241.02;24.75;;;;;;;;;;4978895;28;20046;-64
2022/11/29 05:22:02;;;;;;;118.28;19.33;;;;;;;;;;4998588;28;20054;-63
2022/11/29 05:24:52;;;;;;;156.13;28.67;;;7.20;99.90;;;;;;4989835;28;20047;-64
2022/11/29 05:27:31;;;;;;;148.00;32.80;;;;;;;;;;4974172;28;20384;-64
2022/11/29 05:30:05;;;;;;;210.55;29.63;;;;;;;;;;4975030;28;20055;-64
2022/11/29 05:32:35;;;;;;;185.68;22.38;;;;;;;;;;4988442;28;20567;-63
2022/11/29 05:35:04;;;;;;;179.18;22.30;;;;;;;;;;4993425;28;20058;-64
2022/11/29 05:37:56;;;;;;;136.68;19.52;;;;;;;;;;4993117;28;20042;-64
2022/11/29 05:40:31;;;;;;;103.05;15.23;;;;;;;;;;4992243;28;20257;-64
2022/11/29 05:43:35;;;;;;;130.55;16.95;;;6.90;99.90;;;;;;4994288;28;20387;-63
2022/11/29 05:46:08;;;;;;;119.00;15.48;;;;;;;;;;4993517;28;20089;-63
2022/11/29 05:48:44;;;;;;;148.52;17.70;;;;;;;;;;5005551;28;20419;-64
2022/11/29 05:51:21;;;;;;;103.00;16.70;;;;;;;;;;5009151;28;20140;-63
2022/11/29 05:54:07;;;;;;;127.15;17.98;;;;;;;;;;4994071;28;20411;-63
2022/11/29 05:56:48;;;;;;;97.32;16.25;;;;;;;;;;4993067;28;20103;-64
2022/11/29 05:59:22;;;;;;;104.72;15.52;;;;;;;;;;5008242;28;20097;-64
2022/11/29 06:01:57;;;;;;;111.53;15.13;;;;;;;;;;4993830;28;20422;-64
2022/11/29 06:04:38;;;;;;;104.80;17.17;;;;;;;;;;4994195;28;20125;-64
2022/11/29 06:07:23;;;;;;;169.27;23.30;;;;;;;;;;4993475;28;20067;-63
2022/11/29 06:09:57;;;;;;;78.22;17.05;;;;;;;;;;4992463;28;20096;-64
2022/11/29 06:12:25;;;;;;;135.48;20.92;;;;;;;;;;5009716;28;20050;-63
2022/11/29 06:14:51;;;;;;;124.65;21.45;;;;;;;;;;4992013;28;20089;-63
2022/11/29 06:17:39;;;;;;;144.48;25.48;;;6.80;99.90;;;;;;4991330;28;20178;-63
2022/11/29 06:20:09;;;;;;;107.43;22.23;;;;;;;;;;4976393;28;20049;-64
2022/11/29 06:22:42;;;;;;;271.63;35.20;;;;;;;;;;4976258;28;20047;-63
2022/11/29 06:25:15;;;;;;;110.57;22.33;;;;;;;;;;4993666;28;20518;-63
2022/11/29 06:27:57;;;;;;;108.35;21.30;;;;;;;;;;5008581;28;20128;-63
2022/11/29 06:30:29;;;;;;;156.77;26.40;;;;;;;;;;4998645;28;20046;-63
2022/11/29 06:33:08;;;;;;;54.33;20.40;;;;;;;;;;4991838;28;20054;-64
2022/11/29 06:35:44;;;;;;;145.05;30.83;;;;;;;;;;5008201;28;20499;-64
2022/11/29 06:40:44;;;;;;;198.98;40.83;;;;;;;;;;5037157;22;20136;-64
2022/11/29 06:43:10;;;;;;;136.70;39.95;;;;;;;;;;4994953;28;20041;-63
2022/11/29 06:45:36;;;;;;;234.57;53.95;;;;;;;;;;5002364;28;20136;-63
2022/11/29 06:48:04;;;;;;;214.60;49.15;;;;;;;;;;5012006;28;20112;-64
2022/11/29 06:50:37;;;;;;;135.85;41.83;;;;;;;;;;4995385;28;20157;-63
2022/11/29 06:56:21;;;;;;;166.57;42.20;;;;;;;;;;5026689;22;20558;-66
2022/11/29 06:58:50;;;;;;;113.10;37.47;;;;;;;;;;5051873;28;20049;-64
2022/11/29 07:01:26;;;;;;;91.50;26.42;;;;;;;;;;5052274;28;20049;-65
2022/11/29 07:04:07;;;;;;;113.53;28.80;;;;;;;;;;5050714;28;20052;-64
2022/11/29 07:06:34;;;;;;;170.63;33.97;;;;;;;;;;5034102;28;20048;-65
2022/11/29 07:09:01;;;;;;;72.60;28.48;;;;;;;;;;5050700;28;20036;-65
2022/11/29 07:11:28;;;;;;;121.47;38.45;;;;;;;;;;5051481;28;20106;-65
2022/11/29 07:13:54;;;;;;;164.85;47.15;;;;;;;;;;5050143;28;20083;-64
2022/11/29 07:16:26;;;;;;;119.50;43.53;;;;;;;;;;5021128;28;20037;-65
2022/11/29 07:19:27;;;;;;;134.90;41.63;;;6.50;99.90;;;;;;5042360;28;20094;-65
2022/11/29 07:22:11;;;;;;;;;;;6.50;99.90;;;;;;5025594;28;20401;-65
2022/11/29 07:24:37;;;;;;;62.65;21.05;;;;;;;;;;5052118;28;19925;-64
2022/11/29 07:27:17;;;;;;;48.35;17.05;;;;;;;;;;5051226;28;20103;-65
2022/11/29 07:30:03;;;;;;;54.00;16.27;;;;;;;;;;5038197;28;20401;-65
2022/11/29 07:32:45;;;;;;;43.63;14.13;;;;;;;;;;5041175;28;20103;-64
2022/11/29 07:35:44;;;;;;;42.33;13.68;;;6.50;99.90;;;;;;5047608;28;20060;-64
2022/11/29 07:38:10;;;;;;;66.63;16.08;;;;;;;;;;5038096;28;20167;-64
2022/11/29 07:40:42;;;;;;;62.75;15.70;;;;;;;;;;5031223;28;20073;-64
2022/11/29 07:43:16;;;;;;;66.68;17.48;;;;;;;;;;5047490;28;20135;-64
2022/11/29 07:45:42;;;;;;;57.63;15.02;;;;;;;;;;5044820;28;20041;-65
2022/11/29 07:48:10;;;;;;;60.42;15.80;;;;;;;;;;5050651;28;20041;-64
2022/11/29 07:50:36;;;;;;;45.75;14.30;;;;;;;;;;5030820;28;20052;-64
2022/11/29 07:53:02;;;;;;;27.75;11.45;;;;;;;;;;5043409;28;20481;-63
2022/11/29 07:55:31;;;;;;;49.20;13.82;;;;;;;;;;5048984;28;20800;-63
2022/11/29 07:57:57;;;;;;;53.65;14.48;;;;;;;;;;5029041;28;20127;-65
2022/11/29 08:00:23;;;;;;;53.67;14.25;;;;;;;;;;5051427;28;20098;-63
2022/11/29 08:02:50;;;;;;;48.42;12.35;;;;;;;;;;5050763;28;20124;-64
2022/11/29 08:05:16;;;;;;;54.40;13.25;;;;;;;;;;5032429;28;20044;-63
2022/11/29 08:07:42;;;;;;;51.38;12.45;;;;;;;;;;5017691;28;20067;-64
2022/11/29 08:10:13;;;;;;;52.30;13.10;;;;;;;;;;5023569;28;20101;-64
2022/11/29 08:12:47;;;;;;;90.80;14.88;;;;;;;;;;5045478;28;20041;-68
2022/11/29 08:15:13;;;;;;;31.08;12.13;;;;;;;;;;5016351;28;20048;-63
2022/11/29 08:17:39;;;;;;;57.20;13.63;;;;;;;;;;5049405;28;20087;-67
2022/11/29 08:20:06;;;;;;;36.75;11.23;;;;;;;;;;5017223;28;20412;-64
2022/11/29 08:22:32;;;;;;;24.08;10.02;;;;;;;;;;5037340;28;20091;-64
2022/11/29 08:24:58;;;;;;;38.17;12.25;;;;;;;;;;5054190;28;20420;-64
2022/11/29 08:27:25;;;;;;;43.42;13.00;;;;;;;;;;5037404;28;20045;-64
2022/11/29 08:29:51;;;;;;;44.13;13.23;;;;;;;;;;5054566;28;20098;-63
2022/11/29 08:32:17;;;;;;;36.22;12.23;;;;;;;;;;5038046;28;20405;-64
2022/11/29 08:34:43;;;;;;;42.38;11.48;;;;;;;;;;5018375;28;20478;-64
2022/11/29 08:37:09;;;;;;;32.22;10.32;;;;;;;;;;5055238;28;20056;-64
2022/11/29 08:39:35;;;;;;;29.85;10.55;;;;;;;;;;5055340;28;20041;-63
2022/11/29 08:42:01;;;;;;;26.52;9.55;;;;;;;;;;5037092;28;20055;-63
2022/11/29 08:44:27;;;;;;;27.20;10.13;;;;;;;;;;5034652;28;20092;-64
2022/11/29 08:55:08;;;;;;;24.80;8.82;;;;;;;;;;5055270;28;20056;-64
2022/11/29 08:57:34;;;;;;;24.98;9.25;;;;;;;;;;5051104;28;20100;-64
2022/11/29 09:00:00;;;;;;;22.55;9.50;;;;;;;;;;5069310;28;20065;-63
2022/11/29 09:02:26;;;;;;;25.15;8.13;;;;;;;;;;5052103;28;20102;-63
2022/11/29 09:04:52;;;;;;;26.88;9.02;;;;;;;;;;5070712;28;20048;-64
2022/11/29 09:07:18;;;;;;;19.08;8.50;;;;;;;;;;5028956;28;20046;-63
2022/11/29 09:09:44;;;;;;;16.85;8.38;;;;;;;;;;5032307;28;20045;-65
2022/11/29 09:12:10;;;;;;;20.63;8.35;;;;;;;;;;5028810;28;20052;-63
2022/11/29 09:14:36;;;;;;;22.38;8.57;;;;;;;;;;5030797;28;20370;-64
2022/11/29 09:17:02;;;;;;;18.58;7.50;;;;;;;;;;5036149;28;20056;-64
2022/11/29 09:19:28;;;;;;;16.98;8.80;;;;;;;;;;5053368;28;20049;-63
2022/11/29 09:21:54;;;;;;;19.10;7.93;;;;;;;;;;5069672;28;20044;-63
2022/11/29 09:24:20;;;;;;;24.30;9.05;;;;;;;;;;5036682;28;20080;-64
2022/11/29 09:26:49;;;;;;;24.88;9.05;;;;;;;;;;5053021;28;20033;-64
2022/11/29 09:29:16;;;;;;;21.95;8.95;;;;;;;;;;5052171;28;20045;-64
2022/11/29 09:31:44;;;;;;;20.33;8.48;;;;;;;;;;5068384;28;20053;-63
2022/11/29 09:34:13;;;;;;;21.33;8.15;;;;;;;;;;5052643;28;20056;-63
2022/11/29 09:36:39;;;;;;;20.05;8.27;;;;;;;;;;5053319;28;20524;-65
2022/11/29 09:39:05;;;;;;;26.85;9.10;;;;;;;;;;5051455;28;20052;-64
2022/11/29 09:41:39;;;;;;;20.30;8.52;;;;;;;;;;5053877;28;20067;-64
2022/11/29 09:44:08;;;;;;;18.80;7.55;;;;;;;;;;5052684;28;20041;-63
2022/11/29 09:46:40;;;;;;;23.63;9.13;;;;;;;;;;5052667;28;20090;-64
2022/11/29 09:49:25;;;;;;;19.35;8.80;;;6.90;99.90;;;;;;5053213;28;20059;-64
2022/11/29 09:52:22;;;;;;;17.08;8.23;;;7.00;99.90;;;;;;5051896;28;20041;-64
2022/11/29 09:55:32;;;;;;;28.02;9.25;;;7.20;99.90;;;;;;5030209;28;20091;-64
2022/11/29 09:58:02;;;;;;;16.92;8.27;;;;;;;;;;4961289;28;20595;-64
2022/11/29 10:00:29;;;;;;;22.83;9.37;;;;;;;;;;4958762;28;20042;-63
2022/11/29 10:03:01;;;;;;;21.70;9.77;;;;;;;;;;4981123;28;20738;-58
2022/11/29 10:05:30;;;;;;;19.77;8.90;;;;;;;;;;5049379;22;20061;-58
2022/11/29 10:08:00;;;;;;;26.17;8.57;;;;;;;;;;5033491;28;20060;-58
2022/11/29 10:10:36;;;;;;;20.77;8.77;;;;;;;;;;5032597;28;20068;-58
2022/11/29 10:13:11;;;;;;;27.35;11.00;;;;;;;;;;5031499;28;20057;-58
2022/11/29 10:15:42;;;;;;;26.20;10.15;;;;;;;;;;5031308;28;20124;-58
2022/11/29 10:18:11;;;;;;;24.23;8.82;;;;;;;;;;5033625;28;20054;-58
2022/11/29 10:20:38;;;;;;;22.17;9.75;;;;;;;;;;5033653;28;20057;-62
2022/11/29 10:23:23;;;;;;;28.02;9.25;;;;;;;;;;5031427;28;20131;-63
2022/11/29 10:25:53;;;;;;;22.05;8.73;;;;;;;;;;5030878;28;20061;-62
2022/11/29 10:28:21;;;;;;;;;;;7.70;99.90;;;;;;5030513;28;20053;-62
2022/11/29 10:30:48;;;;;;;23.88;10.10;;;;;;;;;;5031980;28;19930;-62
2022/11/29 10:33:24;;;;;;;24.13;10.23;;;;;;;;;;5033644;28;20072;-63
2022/11/29 10:35:52;;;;;;;22.20;9.80;;;;;;;;;;5033218;28;20057;-63
2022/11/29 10:38:18;;;;;;;32.58;12.52;;;;;;;;;;5013232;28;20175;-62
2022/11/29 10:40:46;;;;;;;24.27;11.88;;;;;;;;;;5031369;28;20037;-63
2022/11/29 10:43:13;;;;;;;30.65;13.48;;;;;;;;;;5029774;28;20065;-62
2022/11/29 10:45:44;;;;;;;37.40;14.95;;;;;;;;;;5031176;28;20041;-63
2022/11/29 10:48:16;;;;;;;35.30;14.27;;;;;;;;;;5031409;28;20041;-62
2022/11/29 10:50:43;;;;;;;38.95;15.85;;;;;;;;;;5032702;28;20049;-63
2022/11/29 10:53:11;;;;;;;34.85;16.45;;;;;;;;;;5030047;28;20091;-62
2022/11/29 10:55:43;;;;;;;40.47;18.42;;;;;;;;;;5033161;28;20095;-62
2022/11/29 10:58:18;;;;;;;44.85;19.48;;;;;;;;;;5032293;28;20128;-62
2022/11/29 11:00:44;;;;;;;42.55;19.52;;;;;;;;;;5045513;28;20046;-62
2022/11/29 11:03:31;;;;;;;37.22;17.52;;;8.00;99.90;;;;;;5031728;28;20049;-62
2022/11/29 11:05:57;;;;;;;36.22;18.13;;;;;;;;;;5024470;28;20184;-63
2022/11/29 11:08:25;;;;;;;39.33;18.02;;;;;;;;;;5032620;28;20099;-62
2022/11/29 11:10:53;;;;;;;41.88;20.50;;;;;;;;;;5030717;28;20065;-62
2022/11/29 11:13:21;;;;;;;47.58;24.65;;;;;;;;;;5025903;28;20049;-62
2022/11/29 11:15:47;;;;;;;44.45;22.60;;;;;;;;;;5031455;28;20037;-62
2022/11/29 11:18:24;;;;;;;46.33;22.38;;;;;;;;;;5027366;28;20132;-62
2022/11/29 11:20:54;;;;;;;40.72;21.00;;;;;;;;;;5044193;28;20064;-62
2022/11/29 11:23:20;;;;;;;42.05;22.52;;;;;;;;;;5031559;28;20045;-63
2022/11/29 11:25:48;;;;;;;45.28;22.17;;;;;;;;;;5030692;28;20045;-62
2022/11/29 11:28:48;;;;;;;46.22;21.90;;;;;;;;;;5016378;28;20414;-62
2022/11/29 11:31:14;;;;;;;45.55;17.90;;;;;;;;;;5004725;28;20076;-63
2022/11/29 11:33:41;;;;;;;41.15;18.63;;;;;;;;;;5031518;28;20074;-63
2022/11/29 11:36:20;;;;;;;37.53;17.60;;;;;;;;;;5021871;28;20052;-63
2022/11/29 11:39:09;;;;;;;40.72;17.20;;;;;;;;;;5024904;28;20041;-63
2022/11/29 11:44:39;;;;;;;41.90;18.75;;;;;;;;;;5021597;28;20089;-63
2022/11/29 11:47:06;;;;;;;37.42;14.88;;;;;;;;;;5032075;28;20045;-63
2022/11/29 11:49:35;;;;;;;41.13;14.70;;;;;;;;;;5012193;28;20049;-62
2022/11/29 11:52:03;;;;;;;31.45;11.98;;;;;;;;;;5025733;28;20053;-62
2022/11/29 11:54:29;;;;;;;28.48;11.10;;;;;;;;;;5018791;28;20068;-63
2022/11/29 11:56:55;;;;;;;26.70;10.38;;;;;;;;;;5021757;28;20041;-63
2022/11/29 11:59:23;;;;;;;31.75;11.70;;;;;;;;;;5017483;28;20095;-63
2022/11/29 12:01:49;;;;;;;37.88;11.82;;;;;;;;;;5027610;28;20041;-63
2022/11/29 12:04:24;;;;;;;22.05;10.93;;;;;;;;;;5030246;28;20049;-62
2022/11/29 12:06:55;;;;;;;30.08;11.02;;;;;;;;;;5028888;28;20406;-63
2022/11/29 12:09:33;;;;;;;33.30;13.05;;;;;;;;;;5029775;28;20477;-62
2022/11/29 12:12:12;;;;;;;31.20;14.30;;;;;;;;;;5030294;28;20064;-66
2022/11/29 12:14:55;;;;;;;33.00;13.43;;;;;;;;;;5029336;28;20053;-62
2022/11/29 12:17:39;;;;;;;37.17;12.73;;;;;;;;;;5031401;28;20099;-62
2022/11/29 12:20:19;;;;;;;29.05;11.07;;;;;;;;;;5032097;28;20041;-62
2022/11/29 12:23:14;;;;;;;32.67;12.88;;;9.50;99.90;;;;;;5031905;28;20045;-62
2022/11/29 12:25:58;;;;;;;26.95;9.57;;;9.30;99.90;;;;;;5029792;28;20050;-62
2022/11/29 12:28:28;;;;;;;31.13;11.75;;;;;;;;;;5030885;28;20046;-62
2022/11/29 12:31:13;;;;;;;31.13;10.23;;;;;;;;;;5031497;28;20045;-62
2022/11/29 12:33:48;;;;;;;30.70;9.25;;;;;;;;;;5030565;28;20516;-63
2022/11/29 12:36:44;;;;;;;22.92;8.93;;;9.30;99.90;;;;;;5031658;28;20501;-62
2022/11/29 12:39:45;;;;;;;22.70;7.90;;;;;;;;;;5029829;28;20053;-62
2022/11/29 12:42:11;;;;;;;24.67;9.25;;;;;;;;;;5009709;28;20422;-62
2022/11/29 12:44:56;;;;;;;24.40;7.88;;;;;;;;;;4994410;28;20061;-62
2022/11/29 12:47:28;;;;;;;25.83;7.68;;;;;;;;;;5008880;28;20054;-62
2022/11/29 12:50:03;;;;;;;20.27;7.47;;;;;;;;;;5009421;28;20060;-62
2022/11/29 12:52:36;;;;;;;31.08;11.50;;;;;;;;;;4993727;28;20081;-62
2022/11/29 12:55:22;;;;;;;33.80;13.43;;;;;;;;;;5004177;28;20042;-62
2022/11/29 12:58:08;;;;;;;30.17;11.85;;;;;;;;;;5008964;28;20049;-62
2022/11/29 13:00:50;;;;;;;30.60;9.18;;;;;;;;;;5009523;28;20080;-62
2022/11/29 13:03:29;;;;;;;26.10;9.95;;;;;;;;;;5009868;28;20098;-62
2022/11/29 13:05:57;;;;;;;29.48;11.15;;;;;;;;;;5009381;28;20050;-62
2022/11/29 13:08:45;;;;;;;29.25;9.70;;;;;;;;;;5012613;28;20076;-62
2022/11/29 13:11:25;;;;;;;27.92;9.95;;;;;;;;;;5010570;28;20042;-62
2022/11/29 13:13:54;;;;;;;29.92;11.15;;;;;;;;;;5012300;28;20037;-62
2022/11/29 13:16:20;;;;;;;41.53;21.63;;;;;;;;;;5033754;28;20053;-61
2022/11/29 13:18:46;;;;;;;34.72;11.57;;;;;;;;;;5015038;28;20050;-62
2022/11/29 13:21:16;;;;;;;32.40;11.65;;;;;;;;;;5021855;28;20074;-62
2022/11/29 13:24:20;;;;;;;34.78;9.85;;;9.50;99.90;;;;;;5033066;28;20474;-62
2022/11/29 13:26:46;;;;;;;36.15;10.98;;;;;;;;;;5034387;28;20080;-62
2022/11/29 13:29:14;;;;;;;34.05;11.98;;;;;;;;;;5034452;28;20060;-62
2022/11/29 13:31:40;;;;;;;37.30;12.07;;;;;;;;;;5033366;28;20029;-62
2022/11/29 13:34:09;;;;;;;33.83;12.25;;;;;;;;;;5034520;28;20053;-61
2022/11/29 13:36:38;;;;;;;41.00;13.15;;;;;;;;;;5031902;28;20127;-62
2022/11/29 13:39:15;;;;;;;45.10;14.65;;;;;;;;;;5030204;28;20409;-62
2022/11/29 13:41:50;;;;;;;45.67;18.75;;;;;;;;;;5033834;28;20045;-63
2022/11/29 13:44:19;;;;;;;35.35;11.18;;;;;;;;;;5032292;28;20048;-62
2022/11/29 13:46:45;;;;;;;43.35;15.93;;;;;;;;;;5033833;28;20054;-62
2022/11/29 13:49:19;;;;;;;41.70;13.35;;;;;;;;;;5033081;28;21662;-62
2022/11/29 13:51:45;;;;;;;36.95;10.80;;;;;;;;;;5032673;28;20045;-62
2022/11/29 13:54:32;;;;;;;29.05;10.00;;;;;;;;;;5028642;28;20061;-62
2022/11/29 13:57:03;;;;;;;36.83;11.65;;;;;;;;;;5008722;28;20042;-62
2022/11/29 13:59:30;;;;;;;33.28;11.07;;;;;;;;;;5016268;28;20420;-62
2022/11/29 14:01:57;;;;;;;39.75;12.25;;;;;;;;;;5033056;28;20049;-62
2022/11/29 14:04:32;;;;;;;31.15;10.20;;;;;;;;;;5030827;28;20154;-62
2022/11/29 14:07:13;;;;;;;29.20;10.43;;;;;;;;;;5034683;28;20512;-62
2022/11/29 14:09:49;;;;;;;33.95;11.27;;;;;;;;;;5014833;28;20406;-62
2022/11/29 14:12:27;;;;;;;31.90;10.73;;;;;;;;;;5036520;28;20518;-62
2022/11/29 14:14:59;;;;;;;29.95;10.05;;;;;;;;;;5033328;28;20045;-62
2022/11/29 14:17:46;;;;;;;41.05;13.82;;;10.00;99.90;;;;;;5054213;22;20053;-62
2022/11/29 14:20:25;;;;;;;32.60;11.27;;;;;;;;;;5006095;23;20232;-62
2022/11/29 14:25:56;;;;;;;32.65;10.90;;;;;;;;;;5010841;22;20052;-62
2022/11/29 14:28:21;;;;;;;32.78;11.13;;;;;;;;;;5005909;28;20061;-62
2022/11/29 14:30:52;;;;;;;35.38;10.98;;;;;;;;;;5012432;28;20038;-62
2022/11/29 14:33:18;;;;;;;33.42;11.15;;;;;;;;;;5006344;28;20053;-62
2022/11/29 14:36:09;;;;;;;27.42;10.55;;;;;;;;;;5011595;28;20046;-64
2022/11/29 14:38:38;;;;;;;34.80;11.88;;;;;;;;;;4998718;28;20096;-62
2022/11/29 14:41:13;;;;;;;28.20;11.13;;;;;;;;;;5013082;28;20076;-62
2022/11/29 14:43:40;;;;;;;33.22;10.55;;;;;;;;;;4992460;28;20046;-65
2022/11/29 14:46:15;;;;;;;27.88;9.93;;;;;;;;;;5006010;28;20486;-62
2022/11/29 14:48:45;;;;;;;30.05;11.13;;;;;;;;;;4993276;28;20049;-62
2022/11/29 14:51:16;;;;;;;35.95;12.30;;;;;;;;;;5012422;28;20038;-62
2022/11/29 14:53:43;;;;;;;41.05;13.18;;;;;;;;;;5008837;28;20053;-62
2022/11/29 14:56:27;;;;;;;34.28;15.23;;;;;;;;;;5010516;28;20053;-63
2022/11/29 14:59:12;;;;;;;36.03;14.95;;;;;;;;;;4972213;28;20046;-62